sensor_id;sensor_type;location;lat;lon;timestamp;P1;durP1;ratioP1;P2;durP2;ratioP2
36585;SDS011;22591;48.314;11.562;2023-08-30T00:01:49;87.03;;;73.93;;
36585;SDS011;22591;48.314;11.562;2023-08-30T00:04:15;112.88;;;84.55;;
36585;SDS011;22591;48.314;11.562;2023-08-30T00:06:40;96.07;;;80.28;;
36585;SDS011;22591;48.314;11.562;2023-08-30T00:09:06;85.45;;;76.15;;
36585;SDS011;22591;48.314;11.562;2023-08-30T00:11:32;93.53;;;79.68;;
36585;SDS011;22591;48.314;11.562;2023-08-30T00:14:05;100.07;;;80.53;;
36585;SDS011;22591;48.314;11.562;2023-08-30T00:16:32;116.18;;;84.10;;
36585;SDS011;22591;48.314;11.562;2023-08-30T00:18:58;105.97;;;81.82;;
36585;SDS011;22591;48.314;11.562;2023-08-30T00:21:24;107.47;;;82.30;;
36585;SDS011;22591;48.314;11.562;2023-08-30T00:23:50;109.85;;;81.38;;
36585;SDS011;22591;48.314;11.562;2023-08-30T00:26:16;103.13;;;80.50;;
36585;SDS011;22591;48.314;11.562;2023-08-30T00:28:41;122.18;;;87.10;;
36585;SDS011;22591;48.314;11.562;2023-08-30T00:31:07;115.22;;;81.05;;
36585;SDS011;22591;48.314;11.562;2023-08-30T00:33:32;106.15;;;80.95;;
36585;SDS011;22591;48.314;11.562;2023-08-30T00:35:58;112.70;;;84.18;;
36585;SDS011;22591;48.314;11.562;2023-08-30T00:38:26;99.13;;;77.95;;
36585;SDS011;22591;48.314;11.562;2023-08-30T00:40:52;87.55;;;78.03;;
36585;SDS011;22591;48.314;11.562;2023-08-30T00:43:19;99.78;;;78.68;;
36585;SDS011;22591;48.314;11.562;2023-08-30T00:45:45;103.07;;;79.53;;
36585;SDS011;22591;48.314;11.562;2023-08-30T00:48:12;90.72;;;75.38;;
36585;SDS011;22591;48.314;11.562;2023-08-30T00:50:38;85.18;;;72.43;;
36585;SDS011;22591;48.314;11.562;2023-08-30T00:53:04;113.70;;;83.13;;
36585;SDS011;22591;48.314;11.562;2023-08-30T00:55:32;102.90;;;80.03;;
36585;SDS011;22591;48.314;11.562;2023-08-30T00:57:59;114.43;;;83.85;;
36585;SDS011;22591;48.314;11.562;2023-08-30T01:00:26;90.22;;;74.43;;
36585;SDS011;22591;48.314;11.562;2023-08-30T01:02:56;94.75;;;76.90;;
36585;SDS011;22591;48.314;11.562;2023-08-30T01:05:22;94.65;;;77.50;;
36585;SDS011;22591;48.314;11.562;2023-08-30T01:07:49;81.35;;;72.25;;
36585;SDS011;22591;48.314;11.562;2023-08-30T01:10:22;106.55;;;78.07;;
36585;SDS011;22591;48.314;11.562;2023-08-30T01:12:59;100.82;;;75.72;;
36585;SDS011;22591;48.314;11.562;2023-08-30T01:15:30;92.15;;;76.18;;
36585;SDS011;22591;48.314;11.562;2023-08-30T01:17:57;89.50;;;74.90;;
36585;SDS011;22591;48.314;11.562;2023-08-30T01:20:24;99.00;;;78.63;;
36585;SDS011;22591;48.314;11.562;2023-08-30T01:22:55;97.30;;;77.15;;
36585;SDS011;22591;48.314;11.562;2023-08-30T01:28:12;102.20;;;76.70;;
36585;SDS011;22591;48.314;11.562;2023-08-30T01:30:40;96.28;;;76.57;;
36585;SDS011;22591;48.314;11.562;2023-08-30T01:33:08;94.35;;;75.25;;
36585;SDS011;22591;48.314;11.562;2023-08-30T01:35:35;131.15;;;87.22;;
36585;SDS011;22591;48.314;11.562;2023-08-30T01:38:05;95.82;;;78.38;;
36585;SDS011;22591;48.314;11.562;2023-08-30T01:40:33;110.72;;;80.28;;
36585;SDS011;22591;48.314;11.562;2023-08-30T01:43:01;107.38;;;81.18;;
36585;SDS011;22591;48.314;11.562;2023-08-30T01:45:30;98.97;;;77.15;;
36585;SDS011;22591;48.314;11.562;2023-08-30T01:47:57;101.78;;;77.40;;
36585;SDS011;22591;48.314;11.562;2023-08-30T01:50:22;151.50;;;92.00;;
36585;SDS011;22591;48.314;11.562;2023-08-30T01:52:49;124.43;;;86.20;;
36585;SDS011;22591;48.314;11.562;2023-08-30T01:55:16;151.02;;;91.13;;
36585;SDS011;22591;48.314;11.562;2023-08-30T01:57:45;117.50;;;83.30;;
36585;SDS011;22591;48.314;11.562;2023-08-30T02:00:11;105.20;;;77.40;;
36585;SDS011;22591;48.314;11.562;2023-08-30T02:02:37;106.82;;;77.05;;
36585;SDS011;22591;48.314;11.562;2023-08-30T02:05:02;118.82;;;81.82;;
36585;SDS011;22591;48.314;11.562;2023-08-30T02:07:30;110.22;;;79.05;;
36585;SDS011;22591;48.314;11.562;2023-08-30T02:10:02;114.47;;;80.18;;
36585;SDS011;22591;48.314;11.562;2023-08-30T02:12:42;96.97;;;75.07;;
36585;SDS011;22591;48.314;11.562;2023-08-30T02:15:15;108.82;;;78.88;;
36585;SDS011;22591;48.314;11.562;2023-08-30T02:17:42;102.95;;;75.75;;
36585;SDS011;22591;48.314;11.562;2023-08-30T02:20:09;107.57;;;77.72;;
36585;SDS011;22591;48.314;11.562;2023-08-30T02:22:35;115.03;;;81.88;;
36585;SDS011;22591;48.314;11.562;2023-08-30T02:25:01;105.75;;;78.53;;
36585;SDS011;22591;48.314;11.562;2023-08-30T02:27:30;117.50;;;81.82;;
36585;SDS011;22591;48.314;11.562;2023-08-30T02:29:57;111.40;;;81.57;;
36585;SDS011;22591;48.314;11.562;2023-08-30T02:32:22;112.07;;;80.25;;
36585;SDS011;22591;48.314;11.562;2023-08-30T02:34:49;92.72;;;76.90;;
36585;SDS011;22591;48.314;11.562;2023-08-30T02:37:16;114.03;;;82.05;;
36585;SDS011;22591;48.314;11.562;2023-08-30T02:39:42;147.73;;;89.10;;
36585;SDS011;22591;48.314;11.562;2023-08-30T02:42:07;131.38;;;83.03;;
36585;SDS011;22591;48.314;11.562;2023-08-30T02:44:33;115.63;;;82.22;;
36585;SDS011;22591;48.314;11.562;2023-08-30T02:46:58;124.78;;;86.35;;
36585;SDS011;22591;48.314;11.562;2023-08-30T02:49:24;129.82;;;86.78;;
36585;SDS011;22591;48.314;11.562;2023-08-30T02:51:49;129.00;;;85.50;;
36585;SDS011;22591;48.314;11.562;2023-08-30T02:54:15;106.07;;;80.43;;
36585;SDS011;22591;48.314;11.562;2023-08-30T02:56:41;130.13;;;88.30;;
36585;SDS011;22591;48.314;11.562;2023-08-30T02:59:08;111.15;;;82.47;;
36585;SDS011;22591;48.314;11.562;2023-08-30T03:01:34;110.25;;;79.10;;
36585;SDS011;22591;48.314;11.562;2023-08-30T03:04:00;109.85;;;78.78;;
36585;SDS011;22591;48.314;11.562;2023-08-30T03:06:25;98.40;;;78.55;;
36585;SDS011;22591;48.314;11.562;2023-08-30T03:08:52;108.55;;;78.00;;
36585;SDS011;22591;48.314;11.562;2023-08-30T03:11:18;97.05;;;75.18;;
36585;SDS011;22591;48.314;11.562;2023-08-30T03:13:44;141.80;;;90.93;;
36585;SDS011;22591;48.314;11.562;2023-08-30T03:16:13;109.25;;;79.75;;
36585;SDS011;22591;48.314;11.562;2023-08-30T03:18:42;115.20;;;80.90;;
36585;SDS011;22591;48.314;11.562;2023-08-30T03:21:08;111.25;;;79.60;;
36585;SDS011;22591;48.314;11.562;2023-08-30T03:23:34;123.55;;;81.80;;
36585;SDS011;22591;48.314;11.562;2023-08-30T03:26:13;99.82;;;75.93;;
36585;SDS011;22591;48.314;11.562;2023-08-30T03:28:41;88.50;;;73.53;;
36585;SDS011;22591;48.314;11.562;2023-08-30T03:31:11;115.20;;;78.60;;
36585;SDS011;22591;48.314;11.562;2023-08-30T03:33:38;125.38;;;80.65;;
36585;SDS011;22591;48.314;11.562;2023-08-30T03:36:03;110.72;;;76.80;;
36585;SDS011;22591;48.314;11.562;2023-08-30T03:38:29;107.68;;;77.53;;
36585;SDS011;22591;48.314;11.562;2023-08-30T03:40:55;108.55;;;77.78;;
36585;SDS011;22591;48.314;11.562;2023-08-30T03:43:20;114.95;;;79.65;;
36585;SDS011;22591;48.314;11.562;2023-08-30T03:45:46;119.05;;;80.97;;
36585;SDS011;22591;48.314;11.562;2023-08-30T03:48:11;108.38;;;76.68;;
36585;SDS011;22591;48.314;11.562;2023-08-30T03:50:37;98.88;;;75.35;;
36585;SDS011;22591;48.314;11.562;2023-08-30T03:53:02;129.48;;;80.50;;
36585;SDS011;22591;48.314;11.562;2023-08-30T03:55:28;126.18;;;81.60;;
36585;SDS011;22591;48.314;11.562;2023-08-30T03:57:54;119.10;;;79.20;;
36585;SDS011;22591;48.314;11.562;2023-08-30T04:00:19;104.43;;;77.50;;
36585;SDS011;22591;48.314;11.562;2023-08-30T04:02:45;118.32;;;80.57;;
36585;SDS011;22591;48.314;11.562;2023-08-30T04:05:10;117.78;;;80.47;;
36585;SDS011;22591;48.314;11.562;2023-08-30T04:07:36;116.20;;;79.28;;
36585;SDS011;22591;48.314;11.562;2023-08-30T04:10:02;112.72;;;79.68;;
36585;SDS011;22591;48.314;11.562;2023-08-30T04:12:31;118.80;;;80.97;;
36585;SDS011;22591;48.314;11.562;2023-08-30T04:14:56;102.88;;;77.40;;
36585;SDS011;22591;48.314;11.562;2023-08-30T04:17:22;110.80;;;75.68;;
36585;SDS011;22591;48.314;11.562;2023-08-30T04:19:51;107.63;;;76.90;;
36585;SDS011;22591;48.314;11.562;2023-08-30T04:22:16;101.20;;;77.63;;
36585;SDS011;22591;48.314;11.562;2023-08-30T04:24:42;110.38;;;80.85;;
36585;SDS011;22591;48.314;11.562;2023-08-30T04:27:07;110.63;;;76.15;;
36585;SDS011;22591;48.314;11.562;2023-08-30T04:29:33;101.10;;;77.70;;
36585;SDS011;22591;48.314;11.562;2023-08-30T04:31:58;139.00;;;88.68;;
36585;SDS011;22591;48.314;11.562;2023-08-30T04:34:24;138.10;;;86.43;;
36585;SDS011;22591;48.314;11.562;2023-08-30T04:36:49;119.45;;;82.68;;
36585;SDS011;22591;48.314;11.562;2023-08-30T04:39:15;132.65;;;88.38;;
36585;SDS011;22591;48.314;11.562;2023-08-30T04:41:41;129.15;;;85.70;;
36585;SDS011;22591;48.314;11.562;2023-08-30T04:44:06;130.63;;;87.63;;
36585;SDS011;22591;48.314;11.562;2023-08-30T04:46:32;118.38;;;83.15;;
36585;SDS011;22591;48.314;11.562;2023-08-30T04:48:57;101.80;;;78.03;;
36585;SDS011;22591;48.314;11.562;2023-08-30T04:51:23;98.00;;;74.53;;
36585;SDS011;22591;48.314;11.562;2023-08-30T04:53:49;100.93;;;81.13;;
36585;SDS011;22591;48.314;11.562;2023-08-30T04:56:14;125.28;;;83.03;;
36585;SDS011;22591;48.314;11.562;2023-08-30T04:58:42;94.78;;;71.85;;
36585;SDS011;22591;48.314;11.562;2023-08-30T05:01:08;97.43;;;77.78;;
36585;SDS011;22591;48.314;11.562;2023-08-30T05:03:34;106.00;;;78.85;;
36585;SDS011;22591;48.314;11.562;2023-08-30T05:06:00;102.53;;;77.30;;
36585;SDS011;22591;48.314;11.562;2023-08-30T05:08:25;100.80;;;76.93;;
36585;SDS011;22591;48.314;11.562;2023-08-30T05:10:53;112.07;;;79.93;;
36585;SDS011;22591;48.314;11.562;2023-08-30T05:13:19;85.65;;;69.43;;
36585;SDS011;22591;48.314;11.562;2023-08-30T05:15:45;109.65;;;78.78;;
36585;SDS011;22591;48.314;11.562;2023-08-30T05:18:11;97.03;;;73.93;;
36585;SDS011;22591;48.314;11.562;2023-08-30T05:20:36;91.97;;;73.22;;
36585;SDS011;22591;48.314;11.562;2023-08-30T05:23:02;99.70;;;74.63;;
36585;SDS011;22591;48.314;11.562;2023-08-30T05:25:27;86.13;;;69.53;;
36585;SDS011;22591;48.314;11.562;2023-08-30T05:27:53;99.00;;;76.80;;
36585;SDS011;22591;48.314;11.562;2023-08-30T05:30:19;84.22;;;68.65;;
36585;SDS011;22591;48.314;11.562;2023-08-30T05:32:45;83.20;;;67.47;;
36585;SDS011;22591;48.314;11.562;2023-08-30T05:35:10;92.15;;;70.10;;
36585;SDS011;22591;48.314;11.562;2023-08-30T05:37:36;94.60;;;72.63;;
36585;SDS011;22591;48.314;11.562;2023-08-30T05:40:01;104.68;;;76.75;;
36585;SDS011;22591;48.314;11.562;2023-08-30T05:42:28;85.93;;;67.55;;
36585;SDS011;22591;48.314;11.562;2023-08-30T05:44:53;96.75;;;72.00;;
36585;SDS011;22591;48.314;11.562;2023-08-30T05:47:19;84.75;;;67.10;;
36585;SDS011;22591;48.314;11.562;2023-08-30T05:49:45;87.25;;;71.65;;
36585;SDS011;22591;48.314;11.562;2023-08-30T05:52:11;94.95;;;74.03;;
36585;SDS011;22591;48.314;11.562;2023-08-30T05:54:36;80.95;;;65.97;;
36585;SDS011;22591;48.314;11.562;2023-08-30T05:57:02;78.05;;;66.88;;
36585;SDS011;22591;48.314;11.562;2023-08-30T05:59:28;83.88;;;69.90;;
36585;SDS011;22591;48.314;11.562;2023-08-30T06:01:54;70.15;;;61.53;;
36585;SDS011;22591;48.314;11.562;2023-08-30T06:04:19;75.88;;;64.70;;
36585;SDS011;22591;48.314;11.562;2023-08-30T06:06:45;70.43;;;61.65;;
36585;SDS011;22591;48.314;11.562;2023-08-30T06:09:11;79.13;;;69.15;;
36585;SDS011;22591;48.314;11.562;2023-08-30T06:11:40;68.57;;;61.10;;
36585;SDS011;22591;48.314;11.562;2023-08-30T06:14:05;77.57;;;69.28;;
36585;SDS011;22591;48.314;11.562;2023-08-30T06:16:31;70.53;;;56.70;;
36585;SDS011;22591;48.314;11.562;2023-08-30T06:18:56;75.20;;;66.63;;
36585;SDS011;22591;48.314;11.562;2023-08-30T06:21:24;80.32;;;70.85;;
36585;SDS011;22591;48.314;11.562;2023-08-30T06:23:50;63.15;;;51.75;;
36585;SDS011;22591;48.314;11.562;2023-08-30T06:26:15;59.65;;;50.50;;
36585;SDS011;22591;48.314;11.562;2023-08-30T06:28:41;52.15;;;46.13;;
36585;SDS011;22591;48.314;11.562;2023-08-30T06:31:07;49.63;;;43.15;;
36585;SDS011;22591;48.314;11.562;2023-08-30T06:33:33;63.80;;;57.20;;
36585;SDS011;22591;48.314;11.562;2023-08-30T06:35:59;54.67;;;47.80;;
36585;SDS011;22591;48.314;11.562;2023-08-30T06:38:24;47.83;;;42.95;;
36585;SDS011;22591;48.314;11.562;2023-08-30T06:40:50;56.63;;;50.65;;
36585;SDS011;22591;48.314;11.562;2023-08-30T06:43:15;49.70;;;41.92;;
36585;SDS011;22591;48.314;11.562;2023-08-30T06:45:41;44.42;;;37.95;;
36585;SDS011;22591;48.314;11.562;2023-08-30T06:48:08;51.75;;;41.22;;
36585;SDS011;22591;48.314;11.562;2023-08-30T06:50:34;41.63;;;37.28;;
36585;SDS011;22591;48.314;11.562;2023-08-30T06:53:00;47.58;;;42.63;;
36585;SDS011;22591;48.314;11.562;2023-08-30T06:55:26;46.13;;;40.85;;
36585;SDS011;22591;48.314;11.562;2023-08-30T06:57:52;53.45;;;48.03;;
36585;SDS011;22591;48.314;11.562;2023-08-30T07:00:17;42.58;;;38.03;;
36585;SDS011;22591;48.314;11.562;2023-08-30T07:02:43;41.42;;;34.67;;
36585;SDS011;22591;48.314;11.562;2023-08-30T07:05:11;42.47;;;38.20;;
36585;SDS011;22591;48.314;11.562;2023-08-30T07:07:37;39.45;;;32.35;;
36585;SDS011;22591;48.314;11.562;2023-08-30T07:10:03;39.03;;;32.38;;
36585;SDS011;22591;48.314;11.562;2023-08-30T07:12:29;38.20;;;34.13;;
36585;SDS011;22591;48.314;11.562;2023-08-30T07:14:55;42.47;;;35.92;;
36585;SDS011;22591;48.314;11.562;2023-08-30T07:17:20;41.50;;;37.13;;
36585;SDS011;22591;48.314;11.562;2023-08-30T07:19:46;42.90;;;35.17;;
36585;SDS011;22591;48.314;11.562;2023-08-30T07:22:12;38.58;;;29.40;;
36585;SDS011;22591;48.314;11.562;2023-08-30T07:24:37;35.05;;;30.58;;
36585;SDS011;22591;48.314;11.562;2023-08-30T07:27:03;30.90;;;27.30;;
36585;SDS011;22591;48.314;11.562;2023-08-30T07:29:28;30.15;;;26.83;;
36585;SDS011;22591;48.314;11.562;2023-08-30T07:31:54;33.78;;;26.58;;
36585;SDS011;22591;48.314;11.562;2023-08-30T07:34:20;32.97;;;27.05;;
36585;SDS011;22591;48.314;11.562;2023-08-30T07:36:46;33.38;;;27.67;;
36585;SDS011;22591;48.314;11.562;2023-08-30T07:39:11;36.53;;;30.08;;
36585;SDS011;22591;48.314;11.562;2023-08-30T07:41:37;32.05;;;28.08;;
36585;SDS011;22591;48.314;11.562;2023-08-30T07:44:03;36.53;;;30.67;;
36585;SDS011;22591;48.314;11.562;2023-08-30T07:46:29;35.92;;;32.08;;
36585;SDS011;22591;48.314;11.562;2023-08-30T07:48:54;36.45;;;29.58;;
36585;SDS011;22591;48.314;11.562;2023-08-30T07:51:20;36.42;;;32.28;;
36585;SDS011;22591;48.314;11.562;2023-08-30T07:53:46;32.75;;;29.25;;
36585;SDS011;22591;48.314;11.562;2023-08-30T07:56:12;33.03;;;29.70;;
36585;SDS011;22591;48.314;11.562;2023-08-30T07:58:37;32.45;;;28.38;;
36585;SDS011;22591;48.314;11.562;2023-08-30T08:01:05;31.45;;;28.13;;
36585;SDS011;22591;48.314;11.562;2023-08-30T08:03:31;32.85;;;29.55;;
36585;SDS011;22591;48.314;11.562;2023-08-30T08:05:58;37.53;;;33.72;;
36585;SDS011;22591;48.314;11.562;2023-08-30T08:08:25;32.30;;;28.85;;
36585;SDS011;22591;48.314;11.562;2023-08-30T08:10:50;39.58;;;35.20;;
36585;SDS011;22591;48.314;11.562;2023-08-30T08:13:16;33.22;;;29.80;;
36585;SDS011;22591;48.314;11.562;2023-08-30T08:15:42;34.13;;;30.50;;
36585;SDS011;22591;48.314;11.562;2023-08-30T08:18:09;30.05;;;26.98;;
36585;SDS011;22591;48.314;11.562;2023-08-30T08:20:34;29.67;;;26.77;;
36585;SDS011;22591;48.314;11.562;2023-08-30T08:23:01;26.30;;;23.67;;
36585;SDS011;22591;48.314;11.562;2023-08-30T08:25:28;28.65;;;26.00;;
36585;SDS011;22591;48.314;11.562;2023-08-30T08:27:54;26.52;;;23.85;;
36585;SDS011;22591;48.314;11.562;2023-08-30T08:30:19;25.85;;;23.55;;
36585;SDS011;22591;48.314;11.562;2023-08-30T08:32:48;26.17;;;23.77;;
36585;SDS011;22591;48.314;11.562;2023-08-30T08:35:14;23.38;;;21.08;;
36585;SDS011;22591;48.314;11.562;2023-08-30T08:37:39;25.23;;;22.88;;
36585;SDS011;22591;48.314;11.562;2023-08-30T08:40:05;24.98;;;22.52;;
36585;SDS011;22591;48.314;11.562;2023-08-30T08:42:33;22.92;;;21.02;;
36585;SDS011;22591;48.314;11.562;2023-08-30T08:45:00;21.52;;;19.73;;
36585;SDS011;22591;48.314;11.562;2023-08-30T08:47:27;21.17;;;19.17;;
36585;SDS011;22591;48.314;11.562;2023-08-30T08:49:56;20.98;;;19.25;;
36585;SDS011;22591;48.314;11.562;2023-08-30T08:52:23;19.98;;;18.38;;
36585;SDS011;22591;48.314;11.562;2023-08-30T08:54:49;20.05;;;18.35;;
36585;SDS011;22591;48.314;11.562;2023-08-30T08:57:15;18.73;;;17.10;;
36585;SDS011;22591;48.314;11.562;2023-08-30T08:59:41;18.58;;;17.08;;
36585;SDS011;22591;48.314;11.562;2023-08-30T09:02:08;18.85;;;17.25;;
36585;SDS011;22591;48.314;11.562;2023-08-30T09:04:37;17.30;;;15.77;;
36585;SDS011;22591;48.314;11.562;2023-08-30T09:07:04;16.52;;;15.32;;
36585;SDS011;22591;48.314;11.562;2023-08-30T09:09:30;16.58;;;15.18;;
36585;SDS011;22591;48.314;11.562;2023-08-30T09:11:56;16.02;;;14.73;;
36585;SDS011;22591;48.314;11.562;2023-08-30T09:14:21;15.68;;;14.48;;
36585;SDS011;22591;48.314;11.562;2023-08-30T09:16:53;16.00;;;14.85;;
36585;SDS011;22591;48.314;11.562;2023-08-30T09:19:20;18.10;;;16.75;;
36585;SDS011;22591;48.314;11.562;2023-08-30T09:21:50;17.42;;;16.02;;
36585;SDS011;22591;48.314;11.562;2023-08-30T09:24:20;15.13;;;14.10;;
36585;SDS011;22591;48.314;11.562;2023-08-30T09:26:49;13.57;;;12.57;;
36585;SDS011;22591;48.314;11.562;2023-08-30T09:29:17;14.48;;;13.38;;
36585;SDS011;22591;48.314;11.562;2023-08-30T09:31:43;12.23;;;11.32;;
36585;SDS011;22591;48.314;11.562;2023-08-30T09:34:09;12.00;;;11.20;;
36585;SDS011;22591;48.314;11.562;2023-08-30T09:36:39;12.43;;;11.63;;
36585;SDS011;22591;48.314;11.562;2023-08-30T09:39:09;11.70;;;10.90;;
36585;SDS011;22591;48.314;11.562;2023-08-30T09:41:44;10.32;;;9.63;;
36585;SDS011;22591;48.314;11.562;2023-08-30T09:44:15;9.52;;;8.93;;
36585;SDS011;22591;48.314;11.562;2023-08-30T09:49:11;6.53;;;6.20;;
36585;SDS011;22591;48.314;11.562;2023-08-30T09:51:38;7.82;;;7.32;;
36585;SDS011;22591;48.314;11.562;2023-08-30T09:54:18;6.43;;;5.93;;
36585;SDS011;22591;48.314;11.562;2023-08-30T09:56:44;5.10;;;4.70;;
36585;SDS011;22591;48.314;11.562;2023-08-30T09:59:11;4.25;;;3.95;;
36585;SDS011;22591;48.314;11.562;2023-08-30T10:01:40;4.50;;;4.20;;
36585;SDS011;22591;48.314;11.562;2023-08-30T10:04:06;4.72;;;4.00;;
36585;SDS011;22591;48.314;11.562;2023-08-30T10:06:34;5.07;;;4.72;;
36585;SDS011;22591;48.314;11.562;2023-08-30T10:09:03;4.47;;;4.07;;
36585;SDS011;22591;48.314;11.562;2023-08-30T10:11:32;5.22;;;4.82;;
36585;SDS011;22591;48.314;11.562;2023-08-30T10:13:59;4.63;;;4.30;;
36585;SDS011;22591;48.314;11.562;2023-08-30T10:16:26;5.15;;;4.85;;
36585;SDS011;22591;48.314;11.562;2023-08-30T10:18:59;4.85;;;4.55;;
36585;SDS011;22591;48.314;11.562;2023-08-30T10:21:27;5.50;;;5.20;;
36585;SDS011;22591;48.314;11.562;2023-08-30T10:23:55;4.32;;;4.03;;
36585;SDS011;22591;48.314;11.562;2023-08-30T10:26:23;4.22;;;4.03;;
36585;SDS011;22591;48.314;11.562;2023-08-30T10:28:51;3.75;;;3.53;;
36585;SDS011;22591;48.314;11.562;2023-08-30T10:31:18;3.85;;;3.38;;
36585;SDS011;22591;48.314;11.562;2023-08-30T10:33:48;3.38;;;3.20;;
36585;SDS011;22591;48.314;11.562;2023-08-30T10:36:20;3.55;;;3.35;;
36585;SDS011;22591;48.314;11.562;2023-08-30T10:38:50;3.85;;;3.60;;
36585;SDS011;22591;48.314;11.562;2023-08-30T10:41:25;3.70;;;3.45;;
36585;SDS011;22591;48.314;11.562;2023-08-30T10:43:57;3.58;;;2.92;;
36585;SDS011;22591;48.314;11.562;2023-08-30T10:46:32;3.78;;;2.45;;
36585;SDS011;22591;48.314;11.562;2023-08-30T10:49:08;6.75;;;2.50;;
36585;SDS011;22591;48.314;11.562;2023-08-30T10:51:37;3.70;;;3.50;;
36585;SDS011;22591;48.314;11.562;2023-08-30T10:56:35;3.47;;;3.28;;
36585;SDS011;22591;48.314;11.562;2023-08-30T10:59:19;3.38;;;3.08;;
36585;SDS011;22591;48.314;11.562;2023-08-30T11:01:46;3.50;;;3.20;;
36585;SDS011;22591;48.314;11.562;2023-08-30T11:04:14;3.88;;;3.03;;
36585;SDS011;22591;48.314;11.562;2023-08-30T11:06:50;3.42;;;3.22;;
36585;SDS011;22591;48.314;11.562;2023-08-30T11:09:17;3.50;;;3.22;;
36585;SDS011;22591;48.314;11.562;2023-08-30T11:11:44;4.18;;;3.88;;
36585;SDS011;22591;48.314;11.562;2023-08-30T11:14:11;3.30;;;3.10;;
36585;SDS011;22591;48.314;11.562;2023-08-30T11:16:37;3.22;;;3.03;;
36585;SDS011;22591;48.314;11.562;2023-08-30T11:19:04;3.42;;;3.22;;
36585;SDS011;22591;48.314;11.562;2023-08-30T11:21:31;2.90;;;2.70;;
36585;SDS011;22591;48.314;11.562;2023-08-30T11:23:58;3.20;;;2.85;;
36585;SDS011;22591;48.314;11.562;2023-08-30T11:26:24;3.33;;;2.80;;
36585;SDS011;22591;48.314;11.562;2023-08-30T11:28:50;3.20;;;2.90;;
36585;SDS011;22591;48.314;11.562;2023-08-30T11:31:18;3.13;;;2.80;;
36585;SDS011;22591;48.314;11.562;2023-08-30T11:33:51;3.22;;;3.00;;
36585;SDS011;22591;48.314;11.562;2023-08-30T11:36:25;3.80;;;3.15;;
36585;SDS011;22591;48.314;11.562;2023-08-30T11:38:53;5.57;;;3.28;;
36585;SDS011;22591;48.314;11.562;2023-08-30T11:41:19;2.97;;;2.78;;
36585;SDS011;22591;48.314;11.562;2023-08-30T11:43:49;5.22;;;2.42;;
36585;SDS011;22591;48.314;11.562;2023-08-30T11:46:16;1.80;;;1.70;;
36585;SDS011;22591;48.314;11.562;2023-08-30T11:48:43;1.75;;;1.65;;
36585;SDS011;22591;48.314;11.562;2023-08-30T11:51:11;1.38;;;1.38;;
36585;SDS011;22591;48.314;11.562;2023-08-30T11:53:37;2.08;;;1.30;;
36585;SDS011;22591;48.314;11.562;2023-08-30T11:56:06;1.80;;;1.70;;
36585;SDS011;22591;48.314;11.562;2023-08-30T11:58:33;1.70;;;1.40;;
36585;SDS011;22591;48.314;11.562;2023-08-30T12:01:02;1.30;;;1.20;;
36585;SDS011;22591;48.314;11.562;2023-08-30T12:03:29;3.17;;;2.00;;
36585;SDS011;22591;48.314;11.562;2023-08-30T12:05:55;1.77;;;1.67;;
36585;SDS011;22591;48.314;11.562;2023-08-30T12:08:25;1.98;;;1.88;;
36585;SDS011;22591;48.314;11.562;2023-08-30T12:10:52;2.00;;;1.90;;
36585;SDS011;22591;48.314;11.562;2023-08-30T12:13:24;1.70;;;1.60;;
36585;SDS011;22591;48.314;11.562;2023-08-30T12:15:51;1.95;;;1.85;;
36585;SDS011;22591;48.314;11.562;2023-08-30T12:18:20;2.03;;;1.92;;
36585;SDS011;22591;48.314;11.562;2023-08-30T12:20:55;4.07;;;3.88;;
36585;SDS011;22591;48.314;11.562;2023-08-30T12:23:29;3.90;;;3.70;;
36585;SDS011;22591;48.314;11.562;2023-08-30T12:28:32;5.30;;;4.80;;
36585;SDS011;22591;48.314;11.562;2023-08-30T12:31:02;5.38;;;4.97;;
36585;SDS011;22591;48.314;11.562;2023-08-30T12:33:35;5.30;;;5.05;;
36585;SDS011;22591;48.314;11.562;2023-08-30T12:36:01;5.45;;;4.95;;
36585;SDS011;22591;48.314;11.562;2023-08-30T12:38:26;6.03;;;5.68;;
36585;SDS011;22591;48.314;11.562;2023-08-30T12:40:53;5.60;;;5.30;;
36585;SDS011;22591;48.314;11.562;2023-08-30T12:43:19;5.75;;;5.30;;
36585;SDS011;22591;48.314;11.562;2023-08-30T12:45:45;6.00;;;5.40;;
36585;SDS011;22591;48.314;11.562;2023-08-30T12:48:12;4.93;;;4.63;;
36585;SDS011;22591;48.314;11.562;2023-08-30T12:50:42;4.95;;;4.65;;
36585;SDS011;22591;48.314;11.562;2023-08-30T12:53:09;4.75;;;4.45;;
36585;SDS011;22591;48.314;11.562;2023-08-30T12:55:35;4.97;;;4.20;;
36585;SDS011;22591;48.314;11.562;2023-08-30T12:58:01;4.45;;;4.05;;
36585;SDS011;22591;48.314;11.562;2023-08-30T13:00:27;5.10;;;4.15;;
36585;SDS011;22591;48.314;11.562;2023-08-30T13:02:53;3.70;;;3.38;;
36585;SDS011;22591;48.314;11.562;2023-08-30T13:05:21;3.03;;;2.90;;
36585;SDS011;22591;48.314;11.562;2023-08-30T13:07:47;3.20;;;3.00;;
36585;SDS011;22591;48.314;11.562;2023-08-30T13:10:13;3.42;;;3.22;;
36585;SDS011;22591;48.314;11.562;2023-08-30T13:12:39;3.25;;;3.08;;
36585;SDS011;22591;48.314;11.562;2023-08-30T13:15:05;3.38;;;3.17;;
36585;SDS011;22591;48.314;11.562;2023-08-30T13:17:31;3.85;;;3.40;;
36585;SDS011;22591;48.314;11.562;2023-08-30T13:19:57;3.70;;;3.40;;
36585;SDS011;22591;48.314;11.562;2023-08-30T13:22:23;3.70;;;3.40;;
36585;SDS011;22591;48.314;11.562;2023-08-30T13:24:49;3.40;;;3.20;;
36585;SDS011;22591;48.314;11.562;2023-08-30T13:27:15;2.80;;;2.70;;
36585;SDS011;22591;48.314;11.562;2023-08-30T13:29:40;3.25;;;3.05;;
36585;SDS011;22591;48.314;11.562;2023-08-30T13:32:06;2.75;;;2.65;;
36585;SDS011;22591;48.314;11.562;2023-08-30T13:34:31;3.30;;;3.10;;
36585;SDS011;22591;48.314;11.562;2023-08-30T13:36:57;3.30;;;3.10;;
36585;SDS011;22591;48.314;11.562;2023-08-30T13:39:23;3.42;;;3.17;;
36585;SDS011;22591;48.314;11.562;2023-08-30T13:41:48;3.08;;;2.97;;
36585;SDS011;22591;48.314;11.562;2023-08-30T13:44:14;3.53;;;3.22;;
36585;SDS011;22591;48.314;11.562;2023-08-30T13:46:40;3.30;;;3.10;;
36585;SDS011;22591;48.314;11.562;2023-08-30T13:49:05;3.95;;;3.55;;
36585;SDS011;22591;48.314;11.562;2023-08-30T13:51:31;4.43;;;3.33;;
36585;SDS011;22591;48.314;11.562;2023-08-30T13:53:57;3.47;;;3.28;;
36585;SDS011;22591;48.314;11.562;2023-08-30T13:56:23;3.00;;;2.90;;
36585;SDS011;22591;48.314;11.562;2023-08-30T13:58:49;3.28;;;3.08;;
36585;SDS011;22591;48.314;11.562;2023-08-30T14:01:15;4.15;;;3.75;;
36585;SDS011;22591;48.314;11.562;2023-08-30T14:03:41;5.50;;;3.58;;
36585;SDS011;22591;48.314;11.562;2023-08-30T14:06:07;4.20;;;3.90;;
36585;SDS011;22591;48.314;11.562;2023-08-30T14:08:33;3.28;;;3.08;;
36585;SDS011;22591;48.314;11.562;2023-08-30T14:10:58;3.50;;;3.30;;
36585;SDS011;22591;48.314;11.562;2023-08-30T14:13:24;4.28;;;3.97;;
36585;SDS011;22591;48.314;11.562;2023-08-30T14:15:49;3.08;;;2.88;;
36585;SDS011;22591;48.314;11.562;2023-08-30T14:18:15;2.70;;;2.60;;
36585;SDS011;22591;48.314;11.562;2023-08-30T14:20:41;2.10;;;2.00;;
36585;SDS011;22591;48.314;11.562;2023-08-30T14:23:07;1.85;;;1.75;;